sensor_id;sensor_type;location;lat;lon;timestamp;temperature;humidity
68109;SHT30;54893;49.864;19.084;2022-11-18T00:03:19;0.87;98.82
68109;SHT30;54893;49.864;19.084;2022-11-18T00:08:19;0.78;98.89
68109;SHT30;54893;49.864;19.084;2022-11-18T00:13:20;0.81;99.11
68109;SHT30;54893;49.864;19.084;2022-11-18T00:18:39;0.82;98.96
68109;SHT30;54893;49.864;19.084;2022-11-18T00:23:40;0.84;99.03
68109;SHT30;54893;49.864;19.084;2022-11-18T00:28:40;0.85;98.83
68109;SHT30;54893;49.864;19.084;2022-11-18T00:33:41;0.82;98.91
68109;SHT30;54893;49.864;19.084;2022-11-18T00:38:41;0.75;99.28
68109;SHT30;54893;49.864;19.084;2022-11-18T00:43:41;0.78;99.45
68109;SHT30;54893;49.864;19.084;2022-11-18T00:48:42;0.81;99.12
68109;SHT30;54893;49.864;19.084;2022-11-18T00:53:43;0.72;99.03
68109;SHT30;54893;49.864;19.084;2022-11-18T00:58:43;0.77;99.47
68109;SHT30;54893;49.864;19.084;2022-11-18T01:03:44;0.81;99.15
68109;SHT30;54893;49.864;19.084;2022-11-18T01:08:44;0.82;99.05
68109;SHT30;54893;49.864;19.084;2022-11-18T01:13:44;0.77;99.00
68109;SHT30;54893;49.864;19.084;2022-11-18T01:18:44;0.75;99.27
68109;SHT30;54893;49.864;19.084;2022-11-18T01:23:45;0.82;99.25
68109;SHT30;54893;49.864;19.084;2022-11-18T01:28:45;0.82;99.04
68109;SHT30;54893;49.864;19.084;2022-11-18T01:33:46;0.81;99.35
68109;SHT30;54893;49.864;19.084;2022-11-18T01:38:46;0.80;99.33
68109;SHT30;54893;49.864;19.084;2022-11-18T01:43:53;0.67;99.45
68109;SHT30;54893;49.864;19.084;2022-11-18T01:49:05;0.57;99.71
68109;SHT30;54893;49.864;19.084;2022-11-18T01:54:29;0.54;99.59
68109;SHT30;54893;49.864;19.084;2022-11-18T01:59:33;0.61;99.60
68109;SHT30;54893;49.864;19.084;2022-11-18T02:04:35;0.61;99.49
68109;SHT30;54893;49.864;19.084;2022-11-18T02:09:37;0.54;99.58
68109;SHT30;54893;49.864;19.084;2022-11-18T02:14:41;0.58;99.48
68109;SHT30;54893;49.864;19.084;2022-11-18T02:30:07;0.54;99.96
68109;SHT30;54893;49.864;19.084;2022-11-18T02:35:17;0.53;99.77
68109;SHT30;54893;49.864;19.084;2022-11-18T02:40:38;0.57;99.61
68109;SHT30;54893;49.864;19.084;2022-11-18T02:45:45;0.57;99.99
68109;SHT30;54893;49.864;19.084;2022-11-18T02:50:49;0.50;99.91
68109;SHT30;54893;49.864;19.084;2022-11-18T02:55:51;0.46;99.94
68109;SHT30;54893;49.864;19.084;2022-11-18T03:00:56;0.49;99.99
68109;SHT30;54893;49.864;19.084;2022-11-18T03:06:05;0.30;99.99
68109;SHT30;54893;49.864;19.084;2022-11-18T03:11:15;0.34;99.99
68109;SHT30;54893;49.864;19.084;2022-11-18T03:16:28;0.41;99.99
68109;SHT30;54893;49.864;19.084;2022-11-18T03:21:34;0.36;99.99
68109;SHT30;54893;49.864;19.084;2022-11-18T03:26:39;0.43;99.99
68109;SHT30;54893;49.864;19.084;2022-11-18T03:31:45;0.46;99.99
68109;SHT30;54893;49.864;19.084;2022-11-18T03:36:49;0.36;99.75
68109;SHT30;54893;49.864;19.084;2022-11-18T03:41:53;0.33;99.85
68109;SHT30;54893;49.864;19.084;2022-11-18T03:46:59;0.39;99.82
68109;SHT30;54893;49.864;19.084;2022-11-18T03:52:07;0.34;99.71
68109;SHT30;54893;49.864;19.084;2022-11-18T03:57:14;0.36;99.63
68109;SHT30;54893;49.864;19.084;2022-11-18T04:02:23;0.37;99.45
68109;SHT30;54893;49.864;19.084;2022-11-18T04:12:27;0.31;99.61
68109;SHT30;54893;49.864;19.084;2022-11-18T04:17:28;0.31;99.65
68109;SHT30;54893;49.864;19.084;2022-11-18T04:22:29;0.31;99.85
68109;SHT30;54893;49.864;19.084;2022-11-18T04:27:29;0.31;99.68
68109;SHT30;54893;49.864;19.084;2022-11-18T04:32:29;0.30;99.48
68109;SHT30;54893;49.864;19.084;2022-11-18T04:37:30;0.31;99.58
68109;SHT30;54893;49.864;19.084;2022-11-18T04:42:30;0.28;99.69
68109;SHT30;54893;49.864;19.084;2022-11-18T04:47:30;0.27;99.89
68109;SHT30;54893;49.864;19.084;2022-11-18T04:52:31;0.20;99.76
68109;SHT30;54893;49.864;19.084;2022-11-18T04:57:31;0.11;99.99
68109;SHT30;54893;49.864;19.084;2022-11-18T05:02:31;0.13;99.99
68109;SHT30;54893;49.864;19.084;2022-11-18T05:07:32;0.09;99.99
68109;SHT30;54893;49.864;19.084;2022-11-18T05:12:32;0.05;99.99
68109;SHT30;54893;49.864;19.084;2022-11-18T05:17:48;0.02;99.98
68109;SHT30;54893;49.864;19.084;2022-11-18T05:22:49;0.02;99.93
68109;SHT30;54893;49.864;19.084;2022-11-18T05:27:49;0.03;99.99
68109;SHT30;54893;49.864;19.084;2022-11-18T05:32:49;0.05;99.99
68109;SHT30;54893;49.864;19.084;2022-11-18T05:37:49;-0.07;99.76
68109;SHT30;54893;49.864;19.084;2022-11-18T05:42:50;-0.10;99.99
68109;SHT30;54893;49.864;19.084;2022-11-18T05:48:09;-0.10;99.89
68109;SHT30;54893;49.864;19.084;2022-11-18T05:53:09;-0.05;99.91
68109;SHT30;54893;49.864;19.084;2022-11-18T05:58:09;-0.11;99.84
68109;SHT30;54893;49.864;19.084;2022-11-18T06:03:16;-0.08;99.99
68109;SHT30;54893;49.864;19.084;2022-11-18T06:08:18;-0.22;99.76
68109;SHT30;54893;49.864;19.084;2022-11-18T06:13:25;-0.15;99.85
68109;SHT30;54893;49.864;19.084;2022-11-18T06:18:29;-0.18;99.71
68109;SHT30;54893;49.864;19.084;2022-11-18T06:23:37;-0.25;99.99
68109;SHT30;54893;49.864;19.084;2022-11-18T06:28:39;-0.14;99.87
68109;SHT30;54893;49.864;19.084;2022-11-18T06:33:39;-0.08;99.58
68109;SHT30;54893;49.864;19.084;2022-11-18T06:38:40;-0.14;99.23
68109;SHT30;54893;49.864;19.084;2022-11-18T06:43:40;-0.10;99.57
68109;SHT30;54893;49.864;19.084;2022-11-18T06:48:40;-0.08;99.43
68109;SHT30;54893;49.864;19.084;2022-11-18T06:53:41;-0.07;99.41
68109;SHT30;54893;49.864;19.084;2022-11-18T06:58:41;0.02;99.15
68109;SHT30;54893;49.864;19.084;2022-11-18T07:03:44;0.09;98.79
68109;SHT30;54893;49.864;19.084;2022-11-18T07:08:45;0.21;98.86
68109;SHT30;54893;49.864;19.084;2022-11-18T07:13:46;0.21;98.64
68109;SHT30;54893;49.864;19.084;2022-11-18T07:18:48;0.05;98.65
68109;SHT30;54893;49.864;19.084;2022-11-18T07:23:48;-0.03;98.64
68109;SHT30;54893;49.864;19.084;2022-11-18T07:28:49;-0.13;98.89
68109;SHT30;54893;49.864;19.084;2022-11-18T07:33:50;-0.13;99.03
68109;SHT30;54893;49.864;19.084;2022-11-18T07:38:54;-0.03;98.75
68109;SHT30;54893;49.864;19.084;2022-11-18T07:43:56;-0.01;98.55
68109;SHT30;54893;49.864;19.084;2022-11-18T07:48:58;-0.08;98.22
68109;SHT30;54893;49.864;19.084;2022-11-18T07:53:59;0.05;98.35
68109;SHT30;54893;49.864;19.084;2022-11-18T07:59:00;-0.03;98.27
68109;SHT30;54893;49.864;19.084;2022-11-18T08:04:09;0.00;98.34
68109;SHT30;54893;49.864;19.084;2022-11-18T08:09:09;0.07;98.65
68109;SHT30;54893;49.864;19.084;2022-11-18T08:14:10;0.14;98.50
68109;SHT30;54893;49.864;19.084;2022-11-18T08:19:10;0.05;98.34
68109;SHT30;54893;49.864;19.084;2022-11-18T08:24:11;0.16;98.50
68109;SHT30;54893;49.864;19.084;2022-11-18T08:29:11;0.06;98.03
68109;SHT30;54893;49.864;19.084;2022-11-18T08:34:12;0.24;98.22
68109;SHT30;54893;49.864;19.084;2022-11-18T08:39:12;0.37;97.40
68109;SHT30;54893;49.864;19.084;2022-11-18T08:44:14;0.47;96.79
68109;SHT30;54893;49.864;19.084;2022-11-18T08:49:15;0.34;96.83
68109;SHT30;54893;49.864;19.084;2022-11-18T08:54:15;0.44;96.40
68109;SHT30;54893;49.864;19.084;2022-11-18T08:59:16;0.61;96.63
68109;SHT30;54893;49.864;19.084;2022-11-18T09:04:17;0.77;96.44
68109;SHT30;54893;49.864;19.084;2022-11-18T09:09:17;0.62;95.85
68109;SHT30;54893;49.864;19.084;2022-11-18T09:14:17;0.65;97.07
68109;SHT30;54893;49.864;19.084;2022-11-18T09:19:18;0.82;96.61
68109;SHT30;54893;49.864;19.084;2022-11-18T09:24:18;0.87;95.68
68109;SHT30;54893;49.864;19.084;2022-11-18T09:29:19;1.02;95.82
68109;SHT30;54893;49.864;19.084;2022-11-18T09:34:24;1.11;95.72
68109;SHT30;54893;49.864;19.084;2022-11-18T09:39:24;0.95;95.62
68109;SHT30;54893;49.864;19.084;2022-11-18T09:50:13;0.87;95.72
68109;SHT30;54893;49.864;19.084;2022-11-18T09:55:16;0.91;95.94
68109;SHT30;54893;49.864;19.084;2022-11-18T10:00:23;0.77;96.10
68109;SHT30;54893;49.864;19.084;2022-11-18T10:11:20;0.53;95.62
68109;SHT30;54893;49.864;19.084;2022-11-18T10:16:35;0.33;95.70
68109;SHT30;54893;49.864;19.084;2022-11-18T10:21:53;0.67;96.19
68109;SHT30;54893;49.864;19.084;2022-11-18T10:26:57;0.68;96.13
68109;SHT30;54893;49.864;19.084;2022-11-18T10:37:20;0.72;95.83
68109;SHT30;54893;49.864;19.084;2022-11-18T10:42:33;0.89;95.55
68109;SHT30;54893;49.864;19.084;2022-11-18T10:47:34;1.19;95.02
68109;SHT30;54893;49.864;19.084;2022-11-18T10:52:51;1.25;94.60
68109;SHT30;54893;49.864;19.084;2022-11-18T10:57:59;0.91;93.83
68109;SHT30;54893;49.864;19.084;2022-11-18T11:03:14;1.12;93.80
68109;SHT30;54893;49.864;19.084;2022-11-18T11:08:21;1.06;94.03
68109;SHT30;54893;49.864;19.084;2022-11-18T11:13:27;0.88;94.11
68109;SHT30;54893;49.864;19.084;2022-11-18T11:18:29;0.89;94.14
68109;SHT30;54893;49.864;19.084;2022-11-18T11:23:44;1.01;94.32
68109;SHT30;54893;49.864;19.084;2022-11-18T11:28:59;0.88;94.84
68109;SHT30;54893;49.864;19.084;2022-11-18T11:50:26;0.53;95.68
68109;SHT30;54893;49.864;19.084;2022-11-18T11:55:32;0.46;95.14
68109;SHT30;54893;49.864;19.084;2022-11-18T12:00:40;0.51;95.22
68109;SHT30;54893;49.864;19.084;2022-11-18T12:05:42;0.39;95.64
68109;SHT30;54893;49.864;19.084;2022-11-18T12:11:14;0.43;95.50
68109;SHT30;54893;49.864;19.084;2022-11-18T12:26:47;0.27;95.52
68109;SHT30;54893;49.864;19.084;2022-11-18T12:31:53;0.24;95.66
68109;SHT30;54893;49.864;19.084;2022-11-18T12:36:55;0.13;95.75
68109;SHT30;54893;49.864;19.084;2022-11-18T12:41:57;0.21;95.85
68109;SHT30;54893;49.864;19.084;2022-11-18T12:57:39;0.17;95.72
68109;SHT30;54893;49.864;19.084;2022-11-18T13:02:53;0.07;95.83
68109;SHT30;54893;49.864;19.084;2022-11-18T13:08:01;-0.03;96.50
68109;SHT30;54893;49.864;19.084;2022-11-18T13:13:25;0.00;96.45
68109;SHT30;54893;49.864;19.084;2022-11-18T13:18:26;-0.05;96.30
68109;SHT30;54893;49.864;19.084;2022-11-18T13:23:29;-0.19;96.51
68109;SHT30;54893;49.864;19.084;2022-11-18T13:34:25;-0.38;96.83
68109;SHT30;54893;49.864;19.084;2022-11-18T13:39:28;-0.32;96.83
68109;SHT30;54893;49.864;19.084;2022-11-18T13:44:37;-0.34;97.03
68109;SHT30;54893;49.864;19.084;2022-11-18T13:49:42;-0.35;96.66
68109;SHT30;54893;49.864;19.084;2022-11-18T13:54:44;-0.52;97.19
68109;SHT30;54893;49.864;19.084;2022-11-18T13:59:46;-0.66;97.12
68109;SHT30;54893;49.864;19.084;2022-11-18T14:04:55;-0.73;97.28
68109;SHT30;54893;49.864;19.084;2022-11-18T14:15:21;-0.96;97.80
68109;SHT30;54893;49.864;19.084;2022-11-18T14:20:23;-0.96;97.92
68109;SHT30;54893;49.864;19.084;2022-11-18T14:30:31;-1.02;97.81
68109;SHT30;54893;49.864;19.084;2022-11-18T14:35:32;-1.03;98.08
68109;SHT30;54893;49.864;19.084;2022-11-18T14:40:32;-1.05;97.67
68109;SHT30;54893;49.864;19.084;2022-11-18T14:45:33;-1.15;97.61
68109;SHT30;54893;49.864;19.084;2022-11-18T14:50:33;-1.15;97.64
68109;SHT30;54893;49.864;19.084;2022-11-18T14:55:33;-1.36;97.27
68109;SHT30;54893;49.864;19.084;2022-11-18T15:00:34;-1.43;97.76
68109;SHT30;54893;49.864;19.084;2022-11-18T15:05:35;-1.30;97.63
68109;SHT30;54893;49.864;19.084;2022-11-18T15:10:36;-1.36;97.30
68109;SHT30;54893;49.864;19.084;2022-11-18T15:15:37;-1.40;97.24
68109;SHT30;54893;49.864;19.084;2022-11-18T15:20:37;-1.63;97.15
68109;SHT30;54893;49.864;19.084;2022-11-18T15:25:37;-1.54;97.38
68109;SHT30;54893;49.864;19.084;2022-11-18T15:30:38;-1.57;96.60
68109;SHT30;54893;49.864;19.084;2022-11-18T15:35:38;-1.60;97.03
68109;SHT30;54893;49.864;19.084;2022-11-18T15:40:38;-1.64;96.76
68109;SHT30;54893;49.864;19.084;2022-11-18T15:45:39;-1.54;97.13
68109;SHT30;54893;49.864;19.084;2022-11-18T15:50:40;-1.57;96.81
68109;SHT30;54893;49.864;19.084;2022-11-18T15:55:40;-1.57;96.36
68109;SHT30;54893;49.864;19.084;2022-11-18T16:00:40;-1.63;96.07
68109;SHT30;54893;49.864;19.084;2022-11-18T16:05:41;-1.67;95.96
68109;SHT30;54893;49.864;19.084;2022-11-18T16:10:41;-1.66;95.88
68109;SHT30;54893;49.864;19.084;2022-11-18T16:16:00;-1.70;95.85
68109;SHT30;54893;49.864;19.084;2022-11-18T16:21:00;-1.67;95.68
68109;SHT30;54893;49.864;19.084;2022-11-18T16:26:00;-1.68;95.56
68109;SHT30;54893;49.864;19.084;2022-11-18T16:31:01;-1.85;95.03
68109;SHT30;54893;49.864;19.084;2022-11-18T16:36:27;-1.78;95.47
68109;SHT30;54893;49.864;19.084;2022-11-18T16:41:27;-1.74;95.41
68109;SHT30;54893;49.864;19.084;2022-11-18T16:46:32;-1.73;96.04
68109;SHT30;54893;49.864;19.084;2022-11-18T16:51:33;-1.70;96.04
68109;SHT30;54893;49.864;19.084;2022-11-18T16:56:34;-1.67;95.94
68109;SHT30;54893;49.864;19.084;2022-11-18T17:01:35;-1.71;95.58
68109;SHT30;54893;49.864;19.084;2022-11-18T17:06:35;-1.68;95.79
68109;SHT30;54893;49.864;19.084;2022-11-18T17:11:35;-1.74;95.98
68109;SHT30;54893;49.864;19.084;2022-11-18T17:16:35;-1.81;96.31
68109;SHT30;54893;49.864;19.084;2022-11-18T17:21:36;-1.80;96.47
68109;SHT30;54893;49.864;19.084;2022-11-18T17:26:36;-1.83;96.26
68109;SHT30;54893;49.864;19.084;2022-11-18T17:31:37;-1.84;96.40
68109;SHT30;54893;49.864;19.084;2022-11-18T17:36:39;-1.83;96.70
68109;SHT30;54893;49.864;19.084;2022-11-18T17:41:40;-1.80;96.99
68109;SHT30;54893;49.864;19.084;2022-11-18T17:46:59;-2.04;96.21
68109;SHT30;54893;49.864;19.084;2022-11-18T17:52:01;-1.91;96.61
68109;SHT30;54893;49.864;19.084;2022-11-18T17:57:02;-1.91;95.96
68109;SHT30;54893;49.864;19.084;2022-11-18T18:02:02;-1.90;96.09
68109;SHT30;54893;49.864;19.084;2022-11-18T18:07:03;-1.91;95.81
68109;SHT30;54893;49.864;19.084;2022-11-18T18:12:03;-1.91;95.89
68109;SHT30;54893;49.864;19.084;2022-11-18T18:17:23;-1.97;95.51
68109;SHT30;54893;49.864;19.084;2022-11-18T18:22:24;-1.93;95.40
68109;SHT30;54893;49.864;19.084;2022-11-18T18:27:24;-1.97;94.59
68109;SHT30;54893;49.864;19.084;2022-11-18T18:32:24;-1.90;95.07
68109;SHT30;54893;49.864;19.084;2022-11-18T18:37:25;-1.88;94.87
68109;SHT30;54893;49.864;19.084;2022-11-18T18:42:26;-1.91;95.19
68109;SHT30;54893;49.864;19.084;2022-11-18T18:47:26;-1.97;94.15
68109;SHT30;54893;49.864;19.084;2022-11-18T18:52:28;-1.95;94.83
68109;SHT30;54893;49.864;19.084;2022-11-18T18:57:29;-1.91;94.89
68109;SHT30;54893;49.864;19.084;2022-11-18T19:02:29;-1.93;94.83
68109;SHT30;54893;49.864;19.084;2022-11-18T19:07:30;-1.95;94.77
68109;SHT30;54893;49.864;19.084;2022-11-18T19:12:30;-1.97;94.66
68109;SHT30;54893;49.864;19.084;2022-11-18T19:17:43;-1.95;94.84
68109;SHT30;54893;49.864;19.084;2022-11-18T19:22:44;-2.01;93.75
68109;SHT30;54893;49.864;19.084;2022-11-18T19:27:44;-1.95;94.46
68109;SHT30;54893;49.864;19.084;2022-11-18T19:32:44;-1.99;93.16
68109;SHT30;54893;49.864;19.084;2022-11-18T19:37:45;-1.97;94.67
68109;SHT30;54893;49.864;19.084;2022-11-18T19:42:46;-1.97;94.00
68109;SHT30;54893;49.864;19.084;2022-11-18T19:47:46;-1.95;94.36
68109;SHT30;54893;49.864;19.084;2022-11-18T19:52:47;-1.94;94.07
68109;SHT30;54893;49.864;19.084;2022-11-18T19:57:47;-1.91;93.97
68109;SHT30;54893;49.864;19.084;2022-11-18T20:02:47;-1.93;94.07
68109;SHT30;54893;49.864;19.084;2022-11-18T20:07:48;-1.99;93.72
68109;SHT30;54893;49.864;19.084;2022-11-18T20:12:49;-2.02;93.34
68109;SHT30;54893;49.864;19.084;2022-11-18T20:17:51;-1.99;93.85
68109;SHT30;54893;49.864;19.084;2022-11-18T20:22:52;-1.94;94.25
68109;SHT30;54893;49.864;19.084;2022-11-18T20:27:53;-1.93;94.35
68109;SHT30;54893;49.864;19.084;2022-11-18T20:32:53;-1.94;94.32
68109;SHT30;54893;49.864;19.084;2022-11-18T20:37:53;-1.91;94.69
68109;SHT30;54893;49.864;19.084;2022-11-18T20:42:54;-1.98;93.70
68109;SHT30;54893;49.864;19.084;2022-11-18T20:48:12;-1.95;94.32
68109;SHT30;54893;49.864;19.084;2022-11-18T20:53:14;-2.02;93.84
68109;SHT30;54893;49.864;19.084;2022-11-18T20:58:15;-2.05;93.44
68109;SHT30;54893;49.864;19.084;2022-11-18T21:03:15;-2.11;93.06
68109;SHT30;54893;49.864;19.084;2022-11-18T21:08:15;-2.07;93.47
68109;SHT30;54893;49.864;19.084;2022-11-18T21:13:16;-2.05;93.35
68109;SHT30;54893;49.864;19.084;2022-11-18T21:18:35;-2.09;93.63
68109;SHT30;54893;49.864;19.084;2022-11-18T21:23:35;-2.07;93.85
68109;SHT30;54893;49.864;19.084;2022-11-18T21:28:35;-2.12;93.02
68109;SHT30;54893;49.864;19.084;2022-11-18T21:33:36;-2.19;92.41
68109;SHT30;54893;49.864;19.084;2022-11-18T21:38:36;-2.22;91.98
68109;SHT30;54893;49.864;19.084;2022-11-18T21:43:38;-2.31;92.14
68109;SHT30;54893;49.864;19.084;2022-11-18T21:48:39;-2.29;91.95
68109;SHT30;54893;49.864;19.084;2022-11-18T21:53:39;-2.27;92.65
68109;SHT30;54893;49.864;19.084;2022-11-18T21:58:40;-2.28;93.08
68109;SHT30;54893;49.864;19.084;2022-11-18T22:03:42;-2.29;92.08
68109;SHT30;54893;49.864;19.084;2022-11-18T22:08:43;-2.31;92.22
68109;SHT30;54893;49.864;19.084;2022-11-18T22:13:43;-2.32;92.93
68109;SHT30;54893;49.864;19.084;2022-11-18T22:18:45;-2.32;93.15
68109;SHT30;54893;49.864;19.084;2022-11-18T22:23:46;-2.37;92.55
68109;SHT30;54893;49.864;19.084;2022-11-18T22:28:51;-2.37;92.81
68109;SHT30;54893;49.864;19.084;2022-11-18T22:33:53;-2.39;92.77
68109;SHT30;54893;49.864;19.084;2022-11-18T22:38:54;-2.38;91.94
68109;SHT30;54893;49.864;19.084;2022-11-18T22:43:55;-2.39;92.24
68109;SHT30;54893;49.864;19.084;2022-11-18T22:48:56;-2.42;91.50
68109;SHT30;54893;49.864;19.084;2022-11-18T22:53:57;-2.39;91.76
68109;SHT30;54893;49.864;19.084;2022-11-18T22:58:57;-2.44;91.88
68109;SHT30;54893;49.864;19.084;2022-11-18T23:03:57;-2.46;91.69
68109;SHT30;54893;49.864;19.084;2022-11-18T23:08:58;-2.42;92.05
68109;SHT30;54893;49.864;19.084;2022-11-18T23:13:58;-2.44;92.07
68109;SHT30;54893;49.864;19.084;2022-11-18T23:19:12;-2.53;89.83
68109;SHT30;54893;49.864;19.084;2022-11-18T23:24:14;-2.49;91.90
68109;SHT30;54893;49.864;19.084;2022-11-18T23:29:15;-2.53;90.39
68109;SHT30;54893;49.864;19.084;2022-11-18T23:34:15;-2.51;91.60
68109;SHT30;54893;49.864;19.084;2022-11-18T23:39:16;-2.55;89.08
68109;SHT30;54893;49.864;19.084;2022-11-18T23:44:16;-2.53;89.71
68109;SHT30;54893;49.864;19.084;2022-11-18T23:49:36;-2.51;91.22
68109;SHT30;54893;49.864;19.084;2022-11-18T23:54:37;-2.55;89.07
68109;SHT30;54893;49.864;19.084;2022-11-18T23:59:37;-2.59;88.71
